sensor_id;sensor_type;location;lat;lon;timestamp;temperature;humidity
26378;DHT22;14078;50.974;6.786;2022-12-07T00:01:04;5.00;99.90
26378;DHT22;14078;50.974;6.786;2022-12-07T00:03:33;5.00;99.90
26378;DHT22;14078;50.974;6.786;2022-12-07T00:05:59;5.10;99.90
26378;DHT22;14078;50.974;6.786;2022-12-07T00:08:26;5.00;99.90
26378;DHT22;14078;50.974;6.786;2022-12-07T00:10:53;4.90;99.90
26378;DHT22;14078;50.974;6.786;2022-12-07T00:13:19;4.90;99.90
26378;DHT22;14078;50.974;6.786;2022-12-07T00:15:46;4.90;99.90
26378;DHT22;14078;50.974;6.786;2022-12-07T00:18:12;4.90;99.90
26378;DHT22;14078;50.974;6.786;2022-12-07T00:20:40;4.80;99.90
26378;DHT22;14078;50.974;6.786;2022-12-07T00:23:06;4.90;99.90
26378;DHT22;14078;50.974;6.786;2022-12-07T00:25:33;4.90;99.90
26378;DHT22;14078;50.974;6.786;2022-12-07T00:27:59;4.90;99.90
26378;DHT22;14078;50.974;6.786;2022-12-07T00:30:26;4.90;99.90
26378;DHT22;14078;50.974;6.786;2022-12-07T00:32:52;4.90;99.90
26378;DHT22;14078;50.974;6.786;2022-12-07T00:35:19;4.80;99.90
26378;DHT22;14078;50.974;6.786;2022-12-07T00:37:47;4.90;99.90
26378;DHT22;14078;50.974;6.786;2022-12-07T00:40:13;4.80;99.90
26378;DHT22;14078;50.974;6.786;2022-12-07T00:42:40;4.90;99.90
26378;DHT22;14078;50.974;6.786;2022-12-07T00:45:07;4.90;99.90
26378;DHT22;14078;50.974;6.786;2022-12-07T00:47:34;4.90;99.90
26378;DHT22;14078;50.974;6.786;2022-12-07T00:50:00;4.90;99.90
26378;DHT22;14078;50.974;6.786;2022-12-07T00:52:27;4.90;99.90
26378;DHT22;14078;50.974;6.786;2022-12-07T00:54:54;4.80;99.90
26378;DHT22;14078;50.974;6.786;2022-12-07T00:57:21;4.80;99.90
26378;DHT22;14078;50.974;6.786;2022-12-07T00:59:48;4.90;99.90
26378;DHT22;14078;50.974;6.786;2022-12-07T01:02:14;4.90;99.90
26378;DHT22;14078;50.974;6.786;2022-12-07T01:04:41;5.00;99.90
26378;DHT22;14078;50.974;6.786;2022-12-07T01:07:07;4.90;99.90
26378;DHT22;14078;50.974;6.786;2022-12-07T01:09:34;4.90;99.90
26378;DHT22;14078;50.974;6.786;2022-12-07T01:12:02;4.90;99.90
26378;DHT22;14078;50.974;6.786;2022-12-07T01:14:29;5.00;99.90
26378;DHT22;14078;50.974;6.786;2022-12-07T01:16:55;5.10;99.90
26378;DHT22;14078;50.974;6.786;2022-12-07T01:19:21;5.00;99.90
26378;DHT22;14078;50.974;6.786;2022-12-07T01:21:48;5.00;99.90
26378;DHT22;14078;50.974;6.786;2022-12-07T01:24:14;5.00;99.90
26378;DHT22;14078;50.974;6.786;2022-12-07T01:26:41;5.00;99.90
26378;DHT22;14078;50.974;6.786;2022-12-07T01:29:09;5.00;99.90
26378;DHT22;14078;50.974;6.786;2022-12-07T01:31:35;5.10;99.90
26378;DHT22;14078;50.974;6.786;2022-12-07T01:34:02;5.00;99.90
26378;DHT22;14078;50.974;6.786;2022-12-07T01:36:29;5.10;99.90
26378;DHT22;14078;50.974;6.786;2022-12-07T01:38:56;5.10;99.90
26378;DHT22;14078;50.974;6.786;2022-12-07T01:41:24;5.00;99.90
26378;DHT22;14078;50.974;6.786;2022-12-07T01:46:37;5.00;99.90
26378;DHT22;14078;50.974;6.786;2022-12-07T01:49:04;5.00;99.90
26378;DHT22;14078;50.974;6.786;2022-12-07T01:51:32;5.00;99.90
26378;DHT22;14078;50.974;6.786;2022-12-07T01:53:59;4.90;99.90
26378;DHT22;14078;50.974;6.786;2022-12-07T01:56:26;5.00;99.90
26378;DHT22;14078;50.974;6.786;2022-12-07T01:58:54;5.00;99.90
26378;DHT22;14078;50.974;6.786;2022-12-07T02:01:22;5.00;99.90
26378;DHT22;14078;50.974;6.786;2022-12-07T02:03:50;5.00;99.90
26378;DHT22;14078;50.974;6.786;2022-12-07T02:06:19;5.00;99.90
26378;DHT22;14078;50.974;6.786;2022-12-07T02:08:46;5.00;99.90
26378;DHT22;14078;50.974;6.786;2022-12-07T02:11:13;4.90;99.90
26378;DHT22;14078;50.974;6.786;2022-12-07T02:13:40;4.90;99.90
26378;DHT22;14078;50.974;6.786;2022-12-07T02:16:13;4.80;99.90
26378;DHT22;14078;50.974;6.786;2022-12-07T02:18:47;4.90;99.90
26378;DHT22;14078;50.974;6.786;2022-12-07T02:21:17;4.90;99.90
26378;DHT22;14078;50.974;6.786;2022-12-07T02:23:53;4.90;99.90
26378;DHT22;14078;50.974;6.786;2022-12-07T02:26:33;4.80;99.90
26378;DHT22;14078;50.974;6.786;2022-12-07T02:32:02;4.80;99.90
26378;DHT22;14078;50.974;6.786;2022-12-07T02:34:33;4.80;99.90
26378;DHT22;14078;50.974;6.786;2022-12-07T02:37:02;4.80;99.90
26378;DHT22;14078;50.974;6.786;2022-12-07T02:39:31;4.70;99.90
26378;DHT22;14078;50.974;6.786;2022-12-07T02:42:01;4.80;99.90
26378;DHT22;14078;50.974;6.786;2022-12-07T02:44:29;4.80;99.90
26378;DHT22;14078;50.974;6.786;2022-12-07T02:46:57;4.80;99.90
26378;DHT22;14078;50.974;6.786;2022-12-07T02:49:26;4.90;99.90
26378;DHT22;14078;50.974;6.786;2022-12-07T02:51:53;4.80;99.90
26378;DHT22;14078;50.974;6.786;2022-12-07T02:54:20;4.80;99.90
26378;DHT22;14078;50.974;6.786;2022-12-07T02:56:48;4.80;99.90
26378;DHT22;14078;50.974;6.786;2022-12-07T02:59:17;4.70;99.90
26378;DHT22;14078;50.974;6.786;2022-12-07T03:01:48;4.80;99.90
26378;DHT22;14078;50.974;6.786;2022-12-07T03:04:20;4.80;99.90
26378;DHT22;14078;50.974;6.786;2022-12-07T03:06:53;4.80;99.90
26378;DHT22;14078;50.974;6.786;2022-12-07T03:09:24;4.90;99.90
26378;DHT22;14078;50.974;6.786;2022-12-07T03:11:54;4.80;99.90
26378;DHT22;14078;50.974;6.786;2022-12-07T03:14:25;4.80;99.90
26378;DHT22;14078;50.974;6.786;2022-12-07T03:16:57;4.80;99.90
26378;DHT22;14078;50.974;6.786;2022-12-07T03:19:25;4.80;99.90
26378;DHT22;14078;50.974;6.786;2022-12-07T03:21:55;4.90;99.90
26378;DHT22;14078;50.974;6.786;2022-12-07T03:24:24;4.90;99.90
26378;DHT22;14078;50.974;6.786;2022-12-07T03:26:53;4.90;99.90
26378;DHT22;14078;50.974;6.786;2022-12-07T03:29:22;4.90;99.90
26378;DHT22;14078;50.974;6.786;2022-12-07T03:31:51;4.80;99.90
26378;DHT22;14078;50.974;6.786;2022-12-07T03:34:20;4.90;99.90
26378;DHT22;14078;50.974;6.786;2022-12-07T03:36:49;4.80;99.90
26378;DHT22;14078;50.974;6.786;2022-12-07T03:39:19;4.90;99.90
26378;DHT22;14078;50.974;6.786;2022-12-07T03:41:47;4.90;99.90
26378;DHT22;14078;50.974;6.786;2022-12-07T03:44:14;4.90;99.90
26378;DHT22;14078;50.974;6.786;2022-12-07T03:46:42;5.00;99.90
26378;DHT22;14078;50.974;6.786;2022-12-07T03:49:11;4.90;99.90
26378;DHT22;14078;50.974;6.786;2022-12-07T03:51:41;4.90;99.90
26378;DHT22;14078;50.974;6.786;2022-12-07T03:54:11;4.90;99.90
26378;DHT22;14078;50.974;6.786;2022-12-07T03:56:41;4.90;99.90
26378;DHT22;14078;50.974;6.786;2022-12-07T03:59:08;4.90;99.90
26378;DHT22;14078;50.974;6.786;2022-12-07T04:01:35;4.80;99.90
26378;DHT22;14078;50.974;6.786;2022-12-07T04:04:01;4.90;99.90
26378;DHT22;14078;50.974;6.786;2022-12-07T04:06:28;5.00;99.90
26378;DHT22;14078;50.974;6.786;2022-12-07T04:08:54;5.00;99.90
26378;DHT22;14078;50.974;6.786;2022-12-07T04:11:21;4.90;99.90
26378;DHT22;14078;50.974;6.786;2022-12-07T04:13:49;4.80;99.90
26378;DHT22;14078;50.974;6.786;2022-12-07T04:16:33;4.80;99.90
26378;DHT22;14078;50.974;6.786;2022-12-07T04:18:59;4.80;99.90
26378;DHT22;14078;50.974;6.786;2022-12-07T04:21:26;4.80;99.90
26378;DHT22;14078;50.974;6.786;2022-12-07T04:23:52;4.80;99.90
26378;DHT22;14078;50.974;6.786;2022-12-07T04:26:19;4.70;99.90
26378;DHT22;14078;50.974;6.786;2022-12-07T04:28:45;4.70;99.90
26378;DHT22;14078;50.974;6.786;2022-12-07T04:31:13;4.60;99.90
26378;DHT22;14078;50.974;6.786;2022-12-07T04:33:40;4.70;99.90
26378;DHT22;14078;50.974;6.786;2022-12-07T04:36:06;4.80;99.90
26378;DHT22;14078;50.974;6.786;2022-12-07T04:38:33;4.70;99.90
26378;DHT22;14078;50.974;6.786;2022-12-07T04:41:03;4.80;99.90
26378;DHT22;14078;50.974;6.786;2022-12-07T04:43:30;4.80;99.90
26378;DHT22;14078;50.974;6.786;2022-12-07T04:45:56;4.80;99.90
26378;DHT22;14078;50.974;6.786;2022-12-07T04:48:24;4.70;99.90
26378;DHT22;14078;50.974;6.786;2022-12-07T04:50:51;4.70;99.90
26378;DHT22;14078;50.974;6.786;2022-12-07T04:53:17;4.60;99.90
26378;DHT22;14078;50.974;6.786;2022-12-07T04:55:44;4.60;99.90
26378;DHT22;14078;50.974;6.786;2022-12-07T04:58:11;4.60;99.90
26378;DHT22;14078;50.974;6.786;2022-12-07T05:00:37;4.60;99.90
26378;DHT22;14078;50.974;6.786;2022-12-07T05:03:04;4.60;99.90
26378;DHT22;14078;50.974;6.786;2022-12-07T05:05:32;4.60;99.90
26378;DHT22;14078;50.974;6.786;2022-12-07T05:07:58;4.60;99.90
26378;DHT22;14078;50.974;6.786;2022-12-07T05:10:25;4.70;99.90
26378;DHT22;14078;50.974;6.786;2022-12-07T05:12:51;4.60;99.90
26378;DHT22;14078;50.974;6.786;2022-12-07T05:15:18;4.60;99.90
26378;DHT22;14078;50.974;6.786;2022-12-07T05:17:44;4.60;99.90
26378;DHT22;14078;50.974;6.786;2022-12-07T05:20:12;4.70;99.90
26378;DHT22;14078;50.974;6.786;2022-12-07T05:22:40;4.80;99.90
26378;DHT22;14078;50.974;6.786;2022-12-07T05:25:07;4.70;99.90
26378;DHT22;14078;50.974;6.786;2022-12-07T05:27:34;4.70;99.90
26378;DHT22;14078;50.974;6.786;2022-12-07T05:30:00;4.70;99.90
26378;DHT22;14078;50.974;6.786;2022-12-07T05:32:27;4.70;99.90
26378;DHT22;14078;50.974;6.786;2022-12-07T05:34:53;4.70;99.90
26378;DHT22;14078;50.974;6.786;2022-12-07T05:37:20;4.60;99.90
26378;DHT22;14078;50.974;6.786;2022-12-07T05:39:48;4.60;99.90
26378;DHT22;14078;50.974;6.786;2022-12-07T05:42:15;4.60;99.90
26378;DHT22;14078;50.974;6.786;2022-12-07T05:44:43;4.60;99.90
26378;DHT22;14078;50.974;6.786;2022-12-07T05:47:10;4.60;99.90
26378;DHT22;14078;50.974;6.786;2022-12-07T05:49:36;4.70;99.90
26378;DHT22;14078;50.974;6.786;2022-12-07T05:52:03;4.70;99.90
26378;DHT22;14078;50.974;6.786;2022-12-07T05:54:30;4.60;99.90
26378;DHT22;14078;50.974;6.786;2022-12-07T05:56:58;4.60;99.90
26378;DHT22;14078;50.974;6.786;2022-12-07T05:59:24;4.60;99.90
26378;DHT22;14078;50.974;6.786;2022-12-07T06:01:51;4.70;99.90
26378;DHT22;14078;50.974;6.786;2022-12-07T06:04:18;4.60;99.90
26378;DHT22;14078;50.974;6.786;2022-12-07T06:06:44;4.50;99.90
26378;DHT22;14078;50.974;6.786;2022-12-07T06:09:11;4.50;99.90
26378;DHT22;14078;50.974;6.786;2022-12-07T06:11:38;4.40;99.90
26378;DHT22;14078;50.974;6.786;2022-12-07T06:14:23;4.50;99.90
26378;DHT22;14078;50.974;6.786;2022-12-07T06:16:50;4.50;99.90
26378;DHT22;14078;50.974;6.786;2022-12-07T06:19:17;4.40;99.90
26378;DHT22;14078;50.974;6.786;2022-12-07T06:21:43;4.50;99.90
26378;DHT22;14078;50.974;6.786;2022-12-07T06:24:11;4.40;99.90
26378;DHT22;14078;50.974;6.786;2022-12-07T06:26:37;4.50;99.90
26378;DHT22;14078;50.974;6.786;2022-12-07T06:29:04;4.40;99.90
26378;DHT22;14078;50.974;6.786;2022-12-07T06:31:32;4.50;99.90
26378;DHT22;14078;50.974;6.786;2022-12-07T06:33:58;4.50;99.90
26378;DHT22;14078;50.974;6.786;2022-12-07T06:36:25;4.50;99.90
26378;DHT22;14078;50.974;6.786;2022-12-07T06:38:52;4.50;99.90
26378;DHT22;14078;50.974;6.786;2022-12-07T06:41:18;4.50;99.90
26378;DHT22;14078;50.974;6.786;2022-12-07T06:43:45;4.50;99.90
26378;DHT22;14078;50.974;6.786;2022-12-07T06:46:11;4.50;99.90
26378;DHT22;14078;50.974;6.786;2022-12-07T06:48:39;4.60;99.90
26378;DHT22;14078;50.974;6.786;2022-12-07T06:51:06;4.60;99.90
26378;DHT22;14078;50.974;6.786;2022-12-07T06:53:32;4.60;99.90
26378;DHT22;14078;50.974;6.786;2022-12-07T06:55:59;4.60;99.90
26378;DHT22;14078;50.974;6.786;2022-12-07T06:58:25;4.50;99.90
26378;DHT22;14078;50.974;6.786;2022-12-07T07:00:52;4.50;99.90
26378;DHT22;14078;50.974;6.786;2022-12-07T07:03:18;4.60;99.90
26378;DHT22;14078;50.974;6.786;2022-12-07T07:05:46;4.60;99.90
26378;DHT22;14078;50.974;6.786;2022-12-07T07:08:13;4.60;99.90
26378;DHT22;14078;50.974;6.786;2022-12-07T07:10:40;4.60;99.90
26378;DHT22;14078;50.974;6.786;2022-12-07T07:13:06;4.50;99.90
26378;DHT22;14078;50.974;6.786;2022-12-07T07:15:33;4.60;99.90
26378;DHT22;14078;50.974;6.786;2022-12-07T07:18:00;4.60;99.90
26378;DHT22;14078;50.974;6.786;2022-12-07T07:20:28;4.60;99.90
26378;DHT22;14078;50.974;6.786;2022-12-07T07:22:56;4.50;99.90
26378;DHT22;14078;50.974;6.786;2022-12-07T07:25:23;4.50;99.90
26378;DHT22;14078;50.974;6.786;2022-12-07T07:27:49;4.60;99.90
26378;DHT22;14078;50.974;6.786;2022-12-07T07:30:16;4.60;99.90
26378;DHT22;14078;50.974;6.786;2022-12-07T07:32:42;4.50;99.90
26378;DHT22;14078;50.974;6.786;2022-12-07T07:35:09;4.50;99.90
26378;DHT22;14078;50.974;6.786;2022-12-07T07:37:35;4.50;99.90
26378;DHT22;14078;50.974;6.786;2022-12-07T07:40:04;4.50;99.90
26378;DHT22;14078;50.974;6.786;2022-12-07T07:42:31;4.40;99.90
26378;DHT22;14078;50.974;6.786;2022-12-07T07:44:57;4.40;99.90
26378;DHT22;14078;50.974;6.786;2022-12-07T07:47:24;4.40;99.90
26378;DHT22;14078;50.974;6.786;2022-12-07T07:49:50;4.50;99.90
26378;DHT22;14078;50.974;6.786;2022-12-07T07:52:17;4.50;99.90
26378;DHT22;14078;50.974;6.786;2022-12-07T07:54:43;4.40;99.90
26378;DHT22;14078;50.974;6.786;2022-12-07T07:57:11;4.40;99.90
26378;DHT22;14078;50.974;6.786;2022-12-07T07:59:37;4.40;99.90
26378;DHT22;14078;50.974;6.786;2022-12-07T08:02:04;4.40;99.90
26378;DHT22;14078;50.974;6.786;2022-12-07T08:04:30;4.30;99.90
26378;DHT22;14078;50.974;6.786;2022-12-07T08:06:57;4.30;99.90
26378;DHT22;14078;50.974;6.786;2022-12-07T08:09:24;4.30;99.90
26378;DHT22;14078;50.974;6.786;2022-12-07T08:11:50;4.30;99.90
26378;DHT22;14078;50.974;6.786;2022-12-07T08:14:18;4.40;99.90
26378;DHT22;14078;50.974;6.786;2022-12-07T08:16:44;4.40;99.90
26378;DHT22;14078;50.974;6.786;2022-12-07T08:19:11;4.40;99.90
26378;DHT22;14078;50.974;6.786;2022-12-07T08:21:37;4.50;99.90
26378;DHT22;14078;50.974;6.786;2022-12-07T08:24:04;4.50;99.90
26378;DHT22;14078;50.974;6.786;2022-12-07T08:26:31;4.50;99.90
26378;DHT22;14078;50.974;6.786;2022-12-07T08:28:57;4.50;99.90
26378;DHT22;14078;50.974;6.786;2022-12-07T08:31:25;4.60;99.90
26378;DHT22;14078;50.974;6.786;2022-12-07T08:33:53;4.70;99.90
26378;DHT22;14078;50.974;6.786;2022-12-07T08:36:19;4.70;99.90
26378;DHT22;14078;50.974;6.786;2022-12-07T08:38:46;4.80;99.90
26378;DHT22;14078;50.974;6.786;2022-12-07T08:41:13;4.80;99.90
26378;DHT22;14078;50.974;6.786;2022-12-07T08:43:40;4.70;99.90
26378;DHT22;14078;50.974;6.786;2022-12-07T08:46:08;4.60;99.90
26378;DHT22;14078;50.974;6.786;2022-12-07T08:48:39;4.70;99.90
26378;DHT22;14078;50.974;6.786;2022-12-07T08:51:07;4.70;99.90
26378;DHT22;14078;50.974;6.786;2022-12-07T08:53:33;4.70;99.90
26378;DHT22;14078;50.974;6.786;2022-12-07T08:56:01;4.60;99.90
26378;DHT22;14078;50.974;6.786;2022-12-07T08:58:28;4.70;99.90
26378;DHT22;14078;50.974;6.786;2022-12-07T09:00:54;4.80;99.90
26378;DHT22;14078;50.974;6.786;2022-12-07T09:03:21;4.80;99.90
26378;DHT22;14078;50.974;6.786;2022-12-07T09:05:48;4.80;99.90
26378;DHT22;14078;50.974;6.786;2022-12-07T09:08:15;4.90;99.90
26378;DHT22;14078;50.974;6.786;2022-12-07T09:10:42;4.90;99.90
26378;DHT22;14078;50.974;6.786;2022-12-07T09:13:08;5.00;99.90
26378;DHT22;14078;50.974;6.786;2022-12-07T09:15:35;5.00;99.90
26378;DHT22;14078;50.974;6.786;2022-12-07T09:18:01;5.10;99.90
26378;DHT22;14078;50.974;6.786;2022-12-07T09:20:28;5.10;99.90
26378;DHT22;14078;50.974;6.786;2022-12-07T09:22:56;5.20;99.90
26378;DHT22;14078;50.974;6.786;2022-12-07T09:25:22;5.20;99.90
26378;DHT22;14078;50.974;6.786;2022-12-07T09:27:54;5.20;99.90
26378;DHT22;14078;50.974;6.786;2022-12-07T09:30:21;5.30;99.90
26378;DHT22;14078;50.974;6.786;2022-12-07T09:32:47;5.30;99.90
26378;DHT22;14078;50.974;6.786;2022-12-07T09:35:14;5.30;99.90
26378;DHT22;14078;50.974;6.786;2022-12-07T09:37:40;5.30;99.90
26378;DHT22;14078;50.974;6.786;2022-12-07T09:40:09;5.30;99.90
26378;DHT22;14078;50.974;6.786;2022-12-07T09:42:36;5.30;99.90
26378;DHT22;14078;50.974;6.786;2022-12-07T09:45:05;5.30;99.90
26378;DHT22;14078;50.974;6.786;2022-12-07T09:47:32;5.20;99.90
26378;DHT22;14078;50.974;6.786;2022-12-07T09:50:00;5.30;99.90
26378;DHT22;14078;50.974;6.786;2022-12-07T09:52:29;5.30;99.90
26378;DHT22;14078;50.974;6.786;2022-12-07T09:54:56;5.50;99.90
26378;DHT22;14078;50.974;6.786;2022-12-07T09:57:25;5.50;99.90
26378;DHT22;14078;50.974;6.786;2022-12-07T09:59:54;5.50;99.90
26378;DHT22;14078;50.974;6.786;2022-12-07T10:02:23;5.50;99.90
26378;DHT22;14078;50.974;6.786;2022-12-07T10:04:50;5.50;99.90
26378;DHT22;14078;50.974;6.786;2022-12-07T10:07:17;5.50;99.90
26378;DHT22;14078;50.974;6.786;2022-12-07T10:09:44;5.50;99.90
26378;DHT22;14078;50.974;6.786;2022-12-07T10:12:11;5.50;99.90
26378;DHT22;14078;50.974;6.786;2022-12-07T10:14:51;5.50;99.90
26378;DHT22;14078;50.974;6.786;2022-12-07T10:17:29;5.50;99.90
26378;DHT22;14078;50.974;6.786;2022-12-07T10:20:08;5.50;99.90
26378;DHT22;14078;50.974;6.786;2022-12-07T10:22:35;5.60;99.90
26378;DHT22;14078;50.974;6.786;2022-12-07T10:25:07;5.60;99.90
26378;DHT22;14078;50.974;6.786;2022-12-07T10:27:34;5.60;99.90
26378;DHT22;14078;50.974;6.786;2022-12-07T10:30:02;5.60;99.90
26378;DHT22;14078;50.974;6.786;2022-12-07T10:32:35;5.50;99.90
26378;DHT22;14078;50.974;6.786;2022-12-07T10:35:22;5.50;99.90
26378;DHT22;14078;50.974;6.786;2022-12-07T10:37:49;5.50;99.90
26378;DHT22;14078;50.974;6.786;2022-12-07T10:40:27;5.50;99.90
26378;DHT22;14078;50.974;6.786;2022-12-07T10:43:01;5.50;99.90
26378;DHT22;14078;50.974;6.786;2022-12-07T10:45:30;5.60;99.90
26378;DHT22;14078;50.974;6.786;2022-12-07T10:47:58;5.70;99.90
26378;DHT22;14078;50.974;6.786;2022-12-07T10:50:35;5.80;99.90
26378;DHT22;14078;50.974;6.786;2022-12-07T10:55:56;5.80;99.90
26378;DHT22;14078;50.974;6.786;2022-12-07T10:58:28;5.80;99.90
26378;DHT22;14078;50.974;6.786;2022-12-07T11:01:01;5.80;99.90
26378;DHT22;14078;50.974;6.786;2022-12-07T11:03:38;5.80;99.90
26378;DHT22;14078;50.974;6.786;2022-12-07T11:06:10;5.80;99.90
26378;DHT22;14078;50.974;6.786;2022-12-07T11:08:44;5.80;99.90
26378;DHT22;14078;50.974;6.786;2022-12-07T11:11:19;5.80;99.90
26378;DHT22;14078;50.974;6.786;2022-12-07T11:13:48;5.70;99.90
26378;DHT22;14078;50.974;6.786;2022-12-07T11:16:23;5.80;99.90
26378;DHT22;14078;50.974;6.786;2022-12-07T11:18:58;5.80;99.90
26378;DHT22;14078;50.974;6.786;2022-12-07T11:21:26;5.90;99.90
26378;DHT22;14078;50.974;6.786;2022-12-07T11:23:56;5.90;99.90
26378;DHT22;14078;50.974;6.786;2022-12-07T11:26:29;5.80;99.90
26378;DHT22;14078;50.974;6.786;2022-12-07T11:29:02;5.90;99.90
26378;DHT22;14078;50.974;6.786;2022-12-07T11:31:34;5.70;99.90
26378;DHT22;14078;50.974;6.786;2022-12-07T11:34:04;5.80;99.90
26378;DHT22;14078;50.974;6.786;2022-12-07T11:36:36;5.80;99.90
26378;DHT22;14078;50.974;6.786;2022-12-07T11:39:04;5.90;99.90
26378;DHT22;14078;50.974;6.786;2022-12-07T11:41:34;5.90;99.90
26378;DHT22;14078;50.974;6.786;2022-12-07T11:44:04;5.80;99.90
26378;DHT22;14078;50.974;6.786;2022-12-07T11:46:37;6.00;99.90
26378;DHT22;14078;50.974;6.786;2022-12-07T11:49:08;5.90;99.90
26378;DHT22;14078;50.974;6.786;2022-12-07T11:51:36;6.00;99.90
26378;DHT22;14078;50.974;6.786;2022-12-07T11:54:05;6.00;99.90
26378;DHT22;14078;50.974;6.786;2022-12-07T11:56:37;5.90;99.90
26378;DHT22;14078;50.974;6.786;2022-12-07T11:59:05;6.00;99.90
26378;DHT22;14078;50.974;6.786;2022-12-07T12:01:39;6.00;99.90
26378;DHT22;14078;50.974;6.786;2022-12-07T12:04:13;6.00;99.90
26378;DHT22;14078;50.974;6.786;2022-12-07T12:06:45;6.00;99.90
26378;DHT22;14078;50.974;6.786;2022-12-07T12:09:12;6.10;99.90
26378;DHT22;14078;50.974;6.786;2022-12-07T12:11:44;6.00;99.90
26378;DHT22;14078;50.974;6.786;2022-12-07T12:14:20;6.10;99.90
26378;DHT22;14078;50.974;6.786;2022-12-07T12:17:14;6.10;99.90
26378;DHT22;14078;50.974;6.786;2022-12-07T12:19:45;6.10;99.90
26378;DHT22;14078;50.974;6.786;2022-12-07T12:22:22;6.10;99.90
26378;DHT22;14078;50.974;6.786;2022-12-07T12:24:52;6.10;99.90
26378;DHT22;14078;50.974;6.786;2022-12-07T12:27:21;6.10;99.90
26378;DHT22;14078;50.974;6.786;2022-12-07T12:29:51;6.10;99.90
26378;DHT22;14078;50.974;6.786;2022-12-07T12:32:21;6.10;99.90
26378;DHT22;14078;50.974;6.786;2022-12-07T12:34:59;6.00;99.90
26378;DHT22;14078;50.974;6.786;2022-12-07T12:40:23;6.00;99.90
26378;DHT22;14078;50.974;6.786;2022-12-07T12:43:14;6.10;99.90
26378;DHT22;14078;50.974;6.786;2022-12-07T12:46:03;6.10;99.90
26378;DHT22;14078;50.974;6.786;2022-12-07T12:48:52;6.10;99.90
26378;DHT22;14078;50.974;6.786;2022-12-07T12:51:37;6.10;99.90
26378;DHT22;14078;50.974;6.786;2022-12-07T12:54:04;6.10;99.90
26378;DHT22;14078;50.974;6.786;2022-12-07T12:56:37;6.00;99.90
26378;DHT22;14078;50.974;6.786;2022-12-07T12:59:23;6.10;99.90
26378;DHT22;14078;50.974;6.786;2022-12-07T13:01:50;6.10;99.90
26378;DHT22;14078;50.974;6.786;2022-12-07T13:04:21;6.20;99.90
26378;DHT22;14078;50.974;6.786;2022-12-07T13:06:49;6.20;99.90
26378;DHT22;14078;50.974;6.786;2022-12-07T13:09:18;6.30;99.90
26378;DHT22;14078;50.974;6.786;2022-12-07T13:11:45;6.20;99.90
26378;DHT22;14078;50.974;6.786;2022-12-07T13:16:57;6.30;99.90
26378;DHT22;14078;50.974;6.786;2022-12-07T13:22:37;6.40;99.90
26378;DHT22;14078;50.974;6.786;2022-12-07T13:25:05;6.30;99.90
26378;DHT22;14078;50.974;6.786;2022-12-07T13:27:34;6.30;99.90
26378;DHT22;14078;50.974;6.786;2022-12-07T13:30:01;6.40;99.90
26378;DHT22;14078;50.974;6.786;2022-12-07T13:32:28;6.30;99.90
26378;DHT22;14078;50.974;6.786;2022-12-07T13:34:55;6.30;99.90
26378;DHT22;14078;50.974;6.786;2022-12-07T13:37:23;6.20;99.90
26378;DHT22;14078;50.974;6.786;2022-12-07T13:39:53;6.20;99.90
26378;DHT22;14078;50.974;6.786;2022-12-07T13:42:22;6.20;99.90
26378;DHT22;14078;50.974;6.786;2022-12-07T13:44:50;6.10;99.90
26378;DHT22;14078;50.974;6.786;2022-12-07T13:47:17;6.10;99.90
26378;DHT22;14078;50.974;6.786;2022-12-07T13:49:46;6.20;99.90
26378;DHT22;14078;50.974;6.786;2022-12-07T13:52:14;6.20;99.90
26378;DHT22;14078;50.974;6.786;2022-12-07T13:54:45;6.20;99.90
26378;DHT22;14078;50.974;6.786;2022-12-07T13:57:14;6.20;99.90
26378;DHT22;14078;50.974;6.786;2022-12-07T13:59:40;6.30;99.90
26378;DHT22;14078;50.974;6.786;2022-12-07T14:02:16;6.20;99.90
26378;DHT22;14078;50.974;6.786;2022-12-07T14:04:43;6.20;99.90
26378;DHT22;14078;50.974;6.786;2022-12-07T14:07:20;6.20;99.90
26378;DHT22;14078;50.974;6.786;2022-12-07T14:09:54;6.20;99.90
26378;DHT22;14078;50.974;6.786;2022-12-07T14:12:22;6.10;99.90
26378;DHT22;14078;50.974;6.786;2022-12-07T14:14:49;6.20;99.90
26378;DHT22;14078;50.974;6.786;2022-12-07T14:17:17;6.10;99.90
26378;DHT22;14078;50.974;6.786;2022-12-07T14:19:45;6.20;99.90
26378;DHT22;14078;50.974;6.786;2022-12-07T14:22:20;6.20;99.90
26378;DHT22;14078;50.974;6.786;2022-12-07T14:24:47;6.30;99.90
26378;DHT22;14078;50.974;6.786;2022-12-07T14:27:18;6.20;99.90
26378;DHT22;14078;50.974;6.786;2022-12-07T14:29:46;6.10;99.90
26378;DHT22;14078;50.974;6.786;2022-12-07T14:32:21;6.20;99.90
26378;DHT22;14078;50.974;6.786;2022-12-07T14:34:53;6.10;99.90
26378;DHT22;14078;50.974;6.786;2022-12-07T14:37:20;6.10;99.90
26378;DHT22;14078;50.974;6.786;2022-12-07T14:39:46;6.00;99.90
26378;DHT22;14078;50.974;6.786;2022-12-07T14:42:13;6.00;99.90
26378;DHT22;14078;50.974;6.786;2022-12-07T14:44:39;6.00;99.90
26378;DHT22;14078;50.974;6.786;2022-12-07T14:47:08;6.00;99.90
26378;DHT22;14078;50.974;6.786;2022-12-07T14:49:35;6.00;99.90
26378;DHT22;14078;50.974;6.786;2022-12-07T14:52:02;5.90;99.90
26378;DHT22;14078;50.974;6.786;2022-12-07T14:54:29;5.80;99.90
26378;DHT22;14078;50.974;6.786;2022-12-07T14:56:57;5.80;99.90
26378;DHT22;14078;50.974;6.786;2022-12-07T14:59:23;5.70;99.90
26378;DHT22;14078;50.974;6.786;2022-12-07T15:01:50;5.60;99.90
26378;DHT22;14078;50.974;6.786;2022-12-07T15:04:18;5.60;99.90
26378;DHT22;14078;50.974;6.786;2022-12-07T15:06:54;5.60;99.90
26378;DHT22;14078;50.974;6.786;2022-12-07T15:09:20;5.50;99.90
26378;DHT22;14078;50.974;6.786;2022-12-07T15:11:47;5.50;99.90
26378;DHT22;14078;50.974;6.786;2022-12-07T15:14:13;5.40;99.90
26378;DHT22;14078;50.974;6.786;2022-12-07T15:16:40;5.40;99.90
26378;DHT22;14078;50.974;6.786;2022-12-07T15:19:10;5.40;99.90
26378;DHT22;14078;50.974;6.786;2022-12-07T15:21:38;5.40;99.90
26378;DHT22;14078;50.974;6.786;2022-12-07T15:24:05;5.40;99.90
26378;DHT22;14078;50.974;6.786;2022-12-07T15:26:32;5.40;99.90
26378;DHT22;14078;50.974;6.786;2022-12-07T15:28:58;5.40;99.90
26378;DHT22;14078;50.974;6.786;2022-12-07T15:31:25;5.40;99.90
26378;DHT22;14078;50.974;6.786;2022-12-07T15:33:51;5.40;99.90
26378;DHT22;14078;50.974;6.786;2022-12-07T15:36:19;5.40;99.90
26378;DHT22;14078;50.974;6.786;2022-12-07T15:38:47;5.30;99.90
26378;DHT22;14078;50.974;6.786;2022-12-07T15:41:14;5.20;99.90
26378;DHT22;14078;50.974;6.786;2022-12-07T15:43:41;5.10;99.90
26378;DHT22;14078;50.974;6.786;2022-12-07T15:46:28;5.20;99.90
26378;DHT22;14078;50.974;6.786;2022-12-07T15:48:55;5.10;99.90
26378;DHT22;14078;50.974;6.786;2022-12-07T15:51:21;5.10;99.90
26378;DHT22;14078;50.974;6.786;2022-12-07T15:53:49;5.10;99.90
26378;DHT22;14078;50.974;6.786;2022-12-07T15:56:16;5.00;99.90
26378;DHT22;14078;50.974;6.786;2022-12-07T15:58:42;5.10;99.90
26378;DHT22;14078;50.974;6.786;2022-12-07T16:01:09;5.00;99.90
26378;DHT22;14078;50.974;6.786;2022-12-07T16:03:36;5.00;99.90
26378;DHT22;14078;50.974;6.786;2022-12-07T16:06:03;4.90;99.90
26378;DHT22;14078;50.974;6.786;2022-12-07T16:08:30;5.00;99.90
26378;DHT22;14078;50.974;6.786;2022-12-07T16:10:58;5.00;99.90